Sanem, Luxembourg
Current Conditions -  °F | °C
As of 1:20 AM on Saturday 25 Oct 2014 (Local Time) from ELLX Reporting Station
Clear Clear  
Wind Chill: 46°   Ceiling: Unl
Heat Index: 48°   Visibility: 6mi
Dew Point: 45°   Wind: 5mph
Humidity: 87%   Direction: 240°WSW
Pressure: 30.09"   Gusts: NA
Location:  49.55°N, 5.93°E
Report Text: ELLX 242320Z 24004KT CAVOK 09/07 Q1019 NOSIG
Loading
Personal Weather Stations






























Interactive Weather Map
Tropical Storm Tracking
New forecast layout! Learn more

10-Day Weather Forecast

Advertisements
Track Severe Weather on mobile